Vining, IA (52348)

12:56 AM CST on February 08, 2016 (GMT -0600)
503Farms | | Change Station
CLOSE
Current Station
Personal Weather Station
Location: Belle Plaine, IA
Elevation: 883 ft
Nearby Weather Stations

Elev 883 ft 41.95 °N, 92.25 °W | Updated 3 minutes ago

Overcast
Overcast
25.7 °F
Feels Like 18 °F
N
6.8
Wind Variable Wind from NW

Today
High -- | Low -- °F
--% Chance of Precip.
Yesterday
High -- | Low -- °F
Precip. -- in
Pressure 29.76 in
Visibility 10.0 miles
Clouds Overcast 2400 ft
Windchill 18 °F
Dew Point 22 °F
Humidity 84%
Rainfall 0.00 in
Snow Depth Not available.
7:14 AM 5:32 PM
Waning Crescent, 0% visible
METAR KVTI 080635Z AUTO 31012G23KT 10SM OVC024 M01/M06 A2976 RMK AO2 T10071060
Pressure 29.76 in
Visibility 10.0 miles
Clouds Overcast 2400 ft
Windchill 18 °F
Dew Point 22 °F
Humidity 84%
Rainfall 0.00 in
Snow Depth Not available.
7:14 AM 5:32 PM
Waning Crescent, 0% visible
METAR KVTI 080635Z AUTO 31012G23KT 10SM OVC024 M01/M06 A2976 RMK AO2 T10071060

10-Day Weather Forecast

Almanac

Astronomy

Feb. 08, 2016 Rise Set
Actual Time
Civil Twilight
Nautical Twilight
Astronomical Twilight
Moon
Length of Visible Light
Length of Day
Tomorrow will be .
, % of the Moon is Illuminated

Today's Extremes

State Highs State Lows

Community

WunderPhotos

Upload Photos

1,891,395 photos uploaded!

WunderBlog® & News

Nearby

Air Quality

  Air Quality AQ Index Pollutant
Not available.

Snow Depth

Station Depth Elevation

Earthquake Activity

City Distance Mag. Time & Date
Minimum magnitude displayed is 2.5.

Coastal Water Temperatures

Place Temperature

Stations

Nearby Weather Stations

Station Location Temp. Windchill Dew Point Humidity Wind Precip. Elev Updated Type
                   

Watches & Warnings

There are currently no watches in effect.